Time;durP1;ratioP1;P1;durP2;ratioP2;P2;SDS_P1;SDS_P2;PMS_P1;PMS_P2;Temp;Humidity;BMP_temperature;BMP_pressure;BME280_temperature;BME280_humidity;BME280_pressure;Samples;Min_cycle;Max_cycle;Signal;HPM_P1;HPM_P2
2021/06/01 00:00:07;;;;;;;3.30;3.00;;;9.60;96.90;;;;;;5076215;28;20181;-70
2021/06/01 00:02:33;;;;;;;2.95;2.67;;;9.60;96.60;;;;;;5076388;28;20176;-70
2021/06/01 00:04:59;;;;;;;3.30;2.60;;;9.60;96.30;;;;;;5076103;28;20653;-70
2021/06/01 00:07:24;;;;;;;2.47;2.27;;;9.40;96.90;;;;;;5075901;28;20212;-70
2021/06/01 00:09:50;;;;;;;3.23;2.93;;;9.30;97.60;;;;;;5075842;28;20643;-70
2021/06/01 00:12:16;;;;;;;2.43;2.00;;;9.40;97.40;;;;;;5075750;28;20173;-71
2021/06/01 00:14:41;;;;;;;2.90;2.70;;;9.30;97.80;;;;;;5075258;28;20180;-70
2021/06/01 00:17:07;;;;;;;2.63;2.37;;;9.30;97.50;;;;;;5075799;28;20533;-70
2021/06/01 00:19:33;;;;;;;3.83;3.00;;;9.30;97.50;;;;;;5075925;28;20535;-70
2021/06/01 00:21:59;;;;;;;1.70;1.60;;;9.20;96.90;;;;;;5075635;28;20161;-71
2021/06/01 00:24:24;;;;;;;2.70;2.50;;;9.10;97.20;;;;;;5075692;28;20580;-70
2021/06/01 00:26:50;;;;;;;4.20;2.80;;;9.20;97.40;;;;;;5075402;28;20244;-70
2021/06/01 00:29:16;;;;;;;2.60;2.00;;;9.20;97.80;;;;;;5075644;28;20408;-70
2021/06/01 00:31:42;;;;;;;3.03;2.73;;;9.20;97.80;;;;;;5075545;28;20200;-70
2021/06/01 00:34:08;;;;;;;4.70;2.30;;;9.30;97.50;;;;;;5075651;28;20279;-70
2021/06/01 00:36:35;;;;;;;2.83;2.60;;;9.20;97.30;;;;;;5075200;28;20193;-70
2021/06/01 00:39:01;;;;;;;2.60;2.40;;;9.10;97.80;;;;;;5075361;28;20408;-70
2021/06/01 00:41:26;;;;;;;2.47;2.23;;;9.20;97.00;;;;;;5075389;28;20177;-70
2021/06/01 00:43:52;;;;;;;3.73;2.83;;;9.20;96.60;;;;;;5075323;28;20249;-70
2021/06/01 00:46:18;;;;;;;3.50;2.53;;;9.10;97.20;;;;;;5074613;28;20715;-71
2021/06/01 00:48:43;;;;;;;4.07;3.40;;;9.20;97.00;;;;;;5074953;28;20256;-70
2021/06/01 00:51:10;;;;;;;2.73;2.53;;;9.10;97.30;;;;;;5075338;28;20187;-70
2021/06/01 00:53:39;;;;;;;3.03;2.20;;;9.10;97.00;;;;;;5075284;28;20177;-70
2021/06/01 00:56:06;;;;;;;2.40;2.17;;;9.20;96.70;;;;;;5075073;28;20221;-70
2021/06/01 00:58:32;;;;;;;2.95;2.63;;;9.10;97.10;;;;;;5075128;28;20304;-70
2021/06/01 01:03:34;;;;;;;3.25;3.00;;;9.00;97.10;;;;;;5075113;28;20583;-70
2021/06/01 01:06:05;;;;;;;3.40;3.10;;;8.90;97.30;;;;;;5074806;28;20201;-71
2021/06/01 01:11:23;;;;;;;5.32;2.72;;;8.80;98.10;;;;;;5075169;28;20173;-70
2021/06/01 01:13:58;;;;;;;3.15;2.85;;;8.90;97.10;;;;;;5074933;28;20164;-70
2021/06/01 01:16:26;;;;;;;2.50;2.20;;;8.70;97.70;;;;;;5074367;28;20206;-70
2021/06/01 01:19:05;;;;;;;3.22;2.92;;;8.70;97.70;;;;;;5074838;28;20160;-70
2021/06/01 01:21:36;;;;;;;2.38;2.17;;;8.60;98.10;;;;;;5074757;28;20174;-70
2021/06/01 01:24:20;;;;;;;3.42;2.55;;;8.70;98.40;;;;;;5074805;28;20596;-70
2021/06/01 01:27:09;;;;;;;4.43;2.80;;;8.60;97.90;;;;;;5074136;28;20208;-70
2021/06/01 01:29:42;;;;;;;2.63;2.42;;;8.60;98.00;;;;;;5074635;28;20160;-70
2021/06/01 01:32:17;;;;;;;2.83;2.17;;;8.50;98.20;;;;;;5074633;28;20249;-70
2021/06/01 01:34:44;;;;;;;2.42;2.22;;;8.50;98.30;;;;;;5073085;28;20211;-70
2021/06/01 01:37:09;;;;;;;3.08;2.88;;;8.60;97.50;;;;;;5074085;28;20183;-70
2021/06/01 01:39:42;;;;;;;2.60;2.30;;;8.40;98.00;;;;;;5074254;28;20183;-70
2021/06/01 01:42:12;;;;;;;3.13;2.78;;;8.40;98.20;;;;;;5074227;28;20177;-70
2021/06/01 01:44:48;;;;;;;3.78;2.55;;;8.40;98.50;;;;;;5074355;28;20177;-70
2021/06/01 01:50:00;;;;;;;5.50;2.80;;;8.40;98.00;;;;;;5074045;28;20695;-70
2021/06/01 01:52:26;;;;;;;3.15;2.70;;;8.30;98.20;;;;;;5074009;28;20176;-70
2021/06/01 01:54:54;;;;;;;2.20;1.80;;;8.30;98.20;;;;;;5074125;28;20230;-70
2021/06/01 01:57:20;;;;;;;2.85;2.15;;;8.20;98.20;;;;;;5073870;28;20168;-70
2021/06/01 01:59:46;;;;;;;2.77;2.37;;;8.10;98.70;;;;;;5073968;28;20653;-70
2021/06/01 02:02:13;;;;;;;3.85;2.63;;;8.30;98.50;;;;;;5073756;28;20472;-70
2021/06/01 02:04:41;;;;;;;4.22;2.60;;;8.40;98.20;;;;;;5073980;28;20172;-70
2021/06/01 02:07:07;;;;;;;2.40;2.10;;;8.30;98.20;;;;;;5073573;28;20292;-70
2021/06/01 02:09:33;;;;;;;2.10;2.00;;;8.30;98.40;;;;;;5073547;28;20480;-70
2021/06/01 02:11:59;;;;;;;2.55;2.35;;;8.30;98.00;;;;;;5073860;28;20869;-70
2021/06/01 02:14:25;;;;;;;4.53;2.90;;;8.20;98.50;;;;;;5073765;28;20204;-70
2021/06/01 02:16:52;;;;;;;2.50;2.17;;;8.20;98.50;;;;;;5073376;28;20659;-70
2021/06/01 02:19:20;;;;;;;2.70;2.50;;;8.10;98.80;;;;;;5073831;28;20187;-70
2021/06/01 02:31:53;;;;;;;2.10;2.00;;;8.20;98.60;;;;;;5073796;28;20171;-70
2021/06/01 02:34:19;;;;;;;2.05;1.90;;;8.00;98.20;;;;;;5073529;28;20634;-70
2021/06/01 02:36:46;;;;;;;2.72;2.53;;;8.20;96.80;;;;;;5073133;28;20611;-70
2021/06/01 02:39:12;;;;;;;6.07;2.83;;;8.30;96.80;;;;;;5073371;28;20195;-70
2021/06/01 02:41:38;;;;;;;2.83;2.63;;;8.30;97.50;;;;;;5073480;28;20186;-70
2021/06/01 02:44:04;;;;;;;2.43;2.23;;;8.30;98.20;;;;;;5073340;28;20175;-70
2021/06/01 02:46:30;;;;;;;4.07;2.70;;;8.30;97.90;;;;;;5073030;28;20427;-70
2021/06/01 02:48:56;;;;;;;2.70;2.50;;;8.20;98.50;;;;;;5073417;28;20263;-70
2021/06/01 02:51:23;;;;;;;2.90;2.28;;;8.20;98.50;;;;;;5073415;28;20192;-70
2021/06/01 02:53:53;;;;;;;4.65;2.60;;;8.20;98.20;;;;;;5073397;28;20164;-70
2021/06/01 02:56:20;;;;;;;3.28;2.67;;;8.00;98.10;;;;;;5072992;28;20661;-70
2021/06/01 02:58:48;;;;;;;2.30;2.20;;;7.80;98.80;;;;;;5073394;28;20570;-70
2021/06/01 03:01:18;;;;;;;2.28;2.17;;;7.90;98.90;;;;;;5073267;28;20168;-70
2021/06/01 03:03:46;;;;;;;2.88;2.42;;;7.90;98.70;;;;;;5073234;28;20186;-70
2021/06/01 03:06:12;;;;;;;3.13;2.80;;;8.00;98.80;;;;;;5072909;28;20195;-70
2021/06/01 03:08:39;;;;;;;3.07;2.87;;;8.00;98.50;;;;;;5072909;28;20238;-70
2021/06/01 03:11:05;;;;;;;2.75;2.03;;;8.10;98.50;;;;;;5075408;28;20421;-70
2021/06/01 03:13:31;;;;;;;2.10;1.90;;;8.10;98.20;;;;;;5077062;28;20179;-70
2021/06/01 03:15:57;;;;;;;2.47;2.13;;;8.10;97.60;;;;;;5076726;28;20224;-70
2021/06/01 03:18:23;;;;;;;2.25;2.15;;;8.10;97.90;;;;;;5077048;28;20449;-70
2021/06/01 03:20:50;;;;;;;3.50;3.03;;;8.10;98.70;;;;;;5076919;28;20181;-70
2021/06/01 03:23:16;;;;;;;2.00;1.90;;;8.10;98.10;;;;;;5076956;28;20441;-70
2021/06/01 03:25:42;;;;;;;3.83;2.55;;;8.00;98.60;;;;;;5076426;28;20291;-70
2021/06/01 03:28:08;;;;;;;2.50;2.10;;;8.10;98.50;;;;;;5076814;28;20287;-70
2021/06/01 03:30:35;;;;;;;1.83;1.73;;;8.10;98.40;;;;;;5077054;28;20402;-70
2021/06/01 03:33:01;;;;;;;3.20;2.40;;;8.10;98.20;;;;;;5076932;28;20165;-70
2021/06/01 03:35:27;;;;;;;2.00;1.80;;;8.10;98.60;;;;;;5076408;28;20214;-70
2021/06/01 03:37:53;;;;;;;2.22;2.00;;;8.10;98.70;;;;;;5076650;28;20414;-70
2021/06/01 03:40:19;;;;;;;2.47;2.33;;;8.10;98.20;;;;;;5076696;28;20172;-70
2021/06/01 03:42:45;;;;;;;3.53;2.30;;;8.20;98.40;;;;;;5076540;28;20567;-70
2021/06/01 03:45:11;;;;;;;3.63;2.53;;;8.20;98.50;;;;;;5076280;28;20222;-70
2021/06/01 03:47:37;;;;;;;2.70;2.50;;;8.10;98.70;;;;;;5076424;28;20512;-70
2021/06/01 03:50:04;;;;;;;2.13;2.00;;;8.00;98.50;;;;;;5076194;28;20574;-70
2021/06/01 03:52:30;;;;;;;4.55;3.30;;;8.10;98.40;;;;;;5076216;28;21045;-70
2021/06/01 03:54:56;;;;;;;3.30;2.40;;;8.10;98.60;;;;;;5076277;28;20185;-70
2021/06/01 03:57:21;;;;;;;3.03;2.03;;;8.20;98.60;;;;;;5076038;28;20490;-70
2021/06/01 03:59:47;;;;;;;2.90;2.13;;;8.20;98.70;;;;;;5076239;28;20410;-70
2021/06/01 04:02:13;;;;;;;2.37;2.20;;;8.30;98.20;;;;;;5076243;28;20205;-70
2021/06/01 04:04:39;;;;;;;2.72;2.42;;;8.30;98.80;;;;;;5076298;28;20256;-71
2021/06/01 04:07:04;;;;;;;3.07;2.77;;;8.40;98.30;;;;;;5075645;28;20327;-70
2021/06/01 04:09:30;;;;;;;2.83;2.53;;;8.40;98.30;;;;;;5075889;28;20274;-70
2021/06/01 04:11:56;;;;;;;2.07;1.87;;;8.50;98.40;;;;;;5075975;28;20195;-70
2021/06/01 04:14:22;;;;;;;3.75;3.10;;;8.30;98.10;;;;;;5076110;28;20657;-70
2021/06/01 04:16:48;;;;;;;2.23;2.13;;;8.40;98.20;;;;;;5075807;28;20196;-70
2021/06/01 04:19:14;;;;;;;4.03;2.37;;;8.50;98.30;;;;;;5076002;28;20417;-70
2021/06/01 04:21:42;;;;;;;2.80;2.60;;;8.60;98.60;;;;;;5074702;28;20195;-70
2021/06/01 04:24:09;;;;;;;2.20;2.10;;;8.70;98.60;;;;;;5075661;28;20177;-70
2021/06/01 04:26:34;;;;;;;2.50;2.30;;;8.70;98.50;;;;;;5075314;28;20197;-70
2021/06/01 04:29:00;;;;;;;3.27;2.90;;;8.90;98.70;;;;;;5075842;28;20255;-70
2021/06/01 04:31:26;;;;;;;4.40;2.63;;;9.40;98.00;;;;;;5075795;28;20177;-70
2021/06/01 04:33:51;;;;;;;2.30;2.20;;;10.00;96.80;;;;;;5075710;28;20173;-70
2021/06/01 04:36:17;;;;;;;2.90;2.40;;;11.00;94.80;;;;;;5075596;28;20199;-70
2021/06/01 04:38:43;;;;;;;2.47;2.03;;;12.20;92.50;;;;;;5075635;28;20639;-71
2021/06/01 04:41:08;;;;;;;3.23;1.97;;;12.70;90.10;;;;;;5075612;28;20184;-70
2021/06/01 04:43:34;;;;;;;3.80;2.80;;;13.00;90.00;;;;;;5075552;28;20176;-70
2021/06/01 04:46:00;;;;;;;3.20;2.37;;;13.80;87.60;;;;;;5075104;28;20208;-70
2021/06/01 04:48:26;;;;;;;2.63;2.33;;;14.00;84.40;;;;;;5075312;28;20292;-70
2021/06/01 04:50:52;;;;;;;2.80;2.60;;;14.20;84.50;;;;;;5075404;28;20538;-71
2021/06/01 04:53:17;;;;;;;3.70;2.77;;;14.20;83.00;;;;;;5075206;28;20173;-70
2021/06/01 04:55:43;;;;;;;3.03;2.60;;;14.10;83.90;;;;;;5075180;28;20189;-71
2021/06/01 04:58:09;;;;;;;2.87;2.67;;;14.10;82.50;;;;;;5075023;28;20256;-71
2021/06/01 05:00:34;;;;;;;2.50;2.30;;;14.30;82.20;;;;;;5075133;28;20178;-70
2021/06/01 05:03:00;;;;;;;2.40;2.20;;;14.40;82.00;;;;;;5073882;28;20184;-71
2021/06/01 05:05:26;;;;;;;3.37;3.07;;;14.30;79.90;;;;;;5074788;28;20191;-70
2021/06/01 05:07:53;;;;;;;3.80;2.43;;;14.50;80.20;;;;;;5074792;28;20208;-71
2021/06/01 05:10:19;;;;;;;2.70;2.50;;;14.60;79.50;;;;;;5074750;28;20194;-70
2021/06/01 05:12:45;;;;;;;2.87;2.67;;;15.00;79.40;;;;;;5074816;28;20404;-70
2021/06/01 05:15:11;;;;;;;2.90;2.70;;;15.00;79.40;;;;;;5074545;28;20242;-71
2021/06/01 05:17:37;;;;;;;2.47;2.27;;;15.00;77.20;;;;;;5073503;28;20182;-70
2021/06/01 05:20:03;;;;;;;2.73;1.97;;;15.10;74.40;;;;;;5074840;28;20778;-71
2021/06/01 05:22:29;;;;;;;1.93;1.80;;;15.30;73.40;;;;;;5074586;28;20175;-71
2021/06/01 05:24:54;;;;;;;2.57;2.37;;;15.70;72.80;;;;;;5074552;28;20407;-70
2021/06/01 05:27:20;;;;;;;4.13;1.83;;;16.10;72.50;;;;;;5074356;28;20200;-70
2021/06/01 05:29:56;;;;;;;2.43;2.23;;;16.50;69.40;;;;;;5074389;28;20170;-70
2021/06/01 05:35:04;;;;;;;3.73;3.23;;;17.50;68.20;;;;;;5074095;28;20901;-70
2021/06/01 05:37:34;;;;;;;2.57;2.37;;;17.70;67.80;;;;;;5074385;28;20413;-71
2021/06/01 05:40:00;;;;;;;2.23;2.00;;;18.50;64.40;;;;;;5074326;28;20409;-71
2021/06/01 05:42:26;;;;;;;2.20;2.00;;;19.20;61.40;;;;;;5074144;28;20410;-71
2021/06/01 05:44:51;;;;;;;3.00;2.80;;;19.10;57.60;;;;;;5073899;28;20639;-71
2021/06/01 05:47:17;;;;;;;2.93;2.17;;;20.10;58.70;;;;;;5073794;28;20392;-71
2021/06/01 05:49:44;;;;;;;2.70;2.20;;;21.80;54.20;;;;;;5074249;28;20603;-71
2021/06/01 05:52:10;;;;;;;2.10;1.90;;;23.30;53.20;;;;;;5074344;28;20385;-71
2021/06/01 05:54:36;;;;;;;2.93;2.70;;;24.40;47.10;;;;;;5074171;28;20457;-71
2021/06/01 05:57:03;;;;;;;4.60;2.17;;;25.00;44.10;;;;;;5073778;28;20484;-71
2021/06/01 05:59:28;;;;;;;2.40;2.07;;;25.80;42.90;;;;;;5074019;28;20406;-71
2021/06/01 06:01:54;;;;;;;2.33;2.13;;;26.80;40.40;;;;;;5073766;28;20396;-71
2021/06/01 06:04:20;;;;;;;1.80;1.70;;;27.90;38.70;;;;;;5071248;28;20169;-71
2021/06/01 06:06:46;;;;;;;1.83;1.73;;;29.20;37.70;;;;;;5073762;28;20201;-71
2021/06/01 06:09:12;;;;;;;1.90;1.80;;;30.00;32.70;;;;;;5073146;28;20186;-72
2021/06/01 06:11:38;;;;;;;2.10;2.00;;;30.00;33.00;;;;;;5072852;28;20419;-72
2021/06/01 06:14:03;;;;;;;2.10;1.90;;;30.70;32.90;;;;;;5074333;28;20456;-71
2021/06/01 06:16:41;;;;;;;1.60;1.50;;;32.10;31.90;;;;;;5072090;28;20297;-71
2021/06/01 06:19:07;;;;;;;2.20;2.00;;;33.40;30.20;;;;;;5073647;28;20538;-70
2021/06/01 06:21:33;;;;;;;1.73;1.63;;;34.10;28.90;;;;;;5073539;28;20399;-70
2021/06/01 06:23:58;;;;;;;1.90;1.70;;;34.60;28.30;;;;;;5073774;28;20204;-70
2021/06/01 06:26:25;;;;;;;2.33;1.67;;;35.00;27.80;;;;;;5073113;28;20513;-70
2021/06/01 06:28:50;;;;;;;2.90;1.70;;;34.80;27.60;;;;;;5073904;28;20170;-70
2021/06/01 06:31:16;;;;;;;1.80;1.70;;;33.80;28.10;;;;;;5073490;28;20411;-71
2021/06/01 06:33:42;;;;;;;1.93;1.83;;;33.10;29.20;;;;;;5072279;28;20539;-70
2021/06/01 06:36:07;;;;;;;2.20;2.00;;;33.10;28.90;;;;;;5073368;28;20200;-70
2021/06/01 06:38:33;;;;;;;1.97;1.77;;;34.00;28.60;;;;;;5073444;28;20228;-71
2021/06/01 06:41:15;;;;;;;2.00;1.90;;;35.30;28.30;;;;;;5073242;28;20174;-70
2021/06/01 06:43:47;;;;;;;1.57;1.47;;;36.60;26.60;;;;;;5073614;28;20199;-71
2021/06/01 06:46:22;;;;;;;2.93;1.57;;;36.70;26.70;;;;;;5072555;28;20808;-71
2021/06/01 06:48:48;;;;;;;2.03;1.93;;;37.50;25.00;;;;;;5073588;28;20805;-70
2021/06/01 06:51:14;;;;;;;2.97;2.03;;;38.30;25.00;;;;;;5073534;28;20392;-70
2021/06/01 06:53:56;;;;;;;1.90;1.43;;;38.90;23.50;;;;;;5073408;28;20166;-70
2021/06/01 06:56:24;;;;;;;3.43;1.53;;;39.20;23.40;;;;;;5073207;28;20188;-70
2021/06/01 06:58:50;;;;;;;1.47;1.37;;;39.60;21.80;;;;;;5073230;28;20422;-70
2021/06/01 07:01:16;;;;;;;2.30;1.97;;;39.40;21.40;;;;;;5073398;28;20396;-71
2021/06/01 07:03:41;;;;;;;1.70;1.60;;;39.00;20.90;;;;;;5073377;28;20225;-70
2021/06/01 07:06:07;;;;;;;1.53;1.43;;;39.30;22.30;;;;;;5072955;28;20190;-70
2021/06/01 07:08:34;;;;;;;2.10;1.80;;;39.30;21.50;;;;;;5073048;28;20216;-71
2021/06/01 07:11:00;;;;;;;1.20;1.10;;;39.50;20.90;;;;;;5073138;28;20426;-71
2021/06/01 07:13:52;;;;;;;2.07;1.67;;;39.90;20.20;;;;;;5073418;28;20400;-70
2021/06/01 07:16:18;;;;;;;1.97;1.87;;;39.80;20.20;;;;;;5072913;28;20424;-70
2021/06/01 07:18:44;;;;;;;2.53;2.33;;;39.70;20.30;;;;;;5073118;28;20427;-71
2021/06/01 07:21:11;;;;;;;3.00;2.00;;;38.90;20.40;;;;;;5071760;28;20932;-70
2021/06/01 07:23:38;;;;;;;2.13;1.90;;;38.10;20.20;;;;;;5073036;28;20435;-71
2021/06/01 07:26:05;;;;;;;2.40;2.20;;;37.90;20.70;;;;;;5072913;28;20503;-71
2021/06/01 07:28:31;;;;;;;2.20;2.10;;;37.80;20.80;;;;;;5072963;28;20447;-70
2021/06/01 07:31:00;;;;;;;2.63;2.43;;;35.80;21.40;;;;;;5073020;28;20406;-70
2021/06/01 07:33:26;;;;;;;3.13;2.87;;;35.30;22.30;;;;;;5072828;28;20400;-71
2021/06/01 07:35:52;;;;;;;8.90;3.07;;;35.00;23.00;;;;;;5072842;28;20439;-69
2021/06/01 07:38:17;;;;;;;2.67;2.00;;;35.60;21.80;;;;;;5072841;28;20170;-71
2021/06/01 07:40:43;;;;;;;2.03;1.83;;;36.30;21.60;;;;;;5072773;28;20562;-71
2021/06/01 07:43:08;;;;;;;2.10;1.97;;;36.20;21.50;;;;;;5072936;28;20169;-70
2021/06/01 07:45:34;;;;;;;2.10;2.00;;;35.90;21.20;;;;;;5072541;28;20189;-71
2021/06/01 07:48:01;;;;;;;2.30;2.10;;;35.80;21.50;;;;;;5072646;28;20190;-71
2021/06/01 07:50:27;;;;;;;1.63;1.53;;;36.30;21.10;;;;;;5073005;28;20400;-70
2021/06/01 07:52:53;;;;;;;2.50;1.43;;;36.10;22.60;;;;;;5072743;28;20404;-70
2021/06/01 07:55:19;;;;;;;3.10;2.20;;;36.00;21.60;;;;;;5072589;28;20791;-70
2021/06/01 07:57:45;;;;;;;2.53;1.23;;;36.00;21.70;;;;;;5075873;28;20407;-71
2021/06/01 08:00:12;;;;;;;1.87;1.77;;;35.20;21.80;;;;;;5076307;28;20170;-71
2021/06/01 08:02:38;;;;;;;3.83;1.70;;;34.90;23.30;;;;;;5074854;28;20173;-72
2021/06/01 08:05:06;;;;;;;1.40;1.30;;;35.40;23.30;;;;;;5075799;28;20434;-70
2021/06/01 08:07:33;;;;;;;1.43;1.33;;;35.60;22.00;;;;;;5076143;28;20451;-71
2021/06/01 08:09:59;;;;;;;2.93;1.70;;;36.80;22.80;;;;;;5075997;28;20473;-71
2021/06/01 08:12:25;;;;;;;2.27;2.07;;;38.00;21.70;;;;;;5076115;28;20404;-70
2021/06/01 08:14:52;;;;;;;1.50;1.40;;;38.70;20.70;;;;;;5076475;28;20169;-71
2021/06/01 08:17:18;;;;;;;1.50;1.23;;;38.90;21.10;;;;;;5074452;28;20654;-70
2021/06/01 08:19:45;;;;;;;1.80;1.70;;;37.60;21.60;;;;;;5076030;28;20397;-71
2021/06/01 08:22:29;;;;;;;2.00;1.73;;;38.10;20.90;;;;;;5075855;28;20592;-71
2021/06/01 08:24:54;;;;;;;3.37;1.93;;;37.80;20.60;;;;;;5075908;28;20939;-69
2021/06/01 08:27:20;;;;;;;2.53;1.70;;;38.20;20.90;;;;;;5075528;28;20479;-70
2021/06/01 08:29:46;;;;;;;1.87;1.77;;;38.00;21.40;;;;;;5075436;28;20201;-71
2021/06/01 08:32:11;;;;;;;1.77;1.60;;;38.40;22.40;;;;;;5075208;28;20173;-71
2021/06/01 08:34:37;;;;;;;1.77;1.67;;;38.70;20.30;;;;;;5075692;28;20636;-71
2021/06/01 08:37:03;;;;;;;1.50;1.37;;;37.40;21.60;;;;;;5075315;28;20560;-73
2021/06/01 08:39:28;;;;;;;5.53;2.07;;;36.10;22.20;;;;;;5075638;28;20532;-70
2021/06/01 08:41:55;;;;;;;4.63;1.40;;;35.20;22.50;;;;;;5075553;28;20166;-70
2021/06/01 08:44:23;;;;;;;1.70;1.60;;;35.90;22.50;;;;;;5075367;28;20657;-71
2021/06/01 08:46:51;;;;;;;1.80;1.70;;;36.80;22.50;;;;;;5075076;28;20451;-71
2021/06/01 08:49:18;;;;;;;1.50;1.33;;;37.00;22.20;;;;;;5075221;28;20399;-71
2021/06/01 08:51:44;;;;;;;1.77;1.67;;;37.00;21.70;;;;;;5075356;28;20396;-71
2021/06/01 08:54:10;;;;;;;2.30;2.10;;;37.10;23.20;;;;;;5075420;28;20431;-71
2021/06/01 08:56:37;;;;;;;1.60;1.50;;;37.10;21.70;;;;;;5074939;28;20930;-71
2021/06/01 08:59:03;;;;;;;1.80;1.70;;;36.70;22.10;;;;;;5075123;28;20403;-71
2021/06/01 09:01:29;;;;;;;2.23;2.07;;;36.70;22.60;;;;;;5075076;28;20465;-70
2021/06/01 09:03:58;;;;;;;1.83;1.70;;;36.30;22.30;;;;;;5075052;28;20666;-71
2021/06/01 09:06:29;;;;;;;7.30;2.87;;;37.00;22.50;;;;;;5074718;28;20211;-71
2021/06/01 09:09:14;;;;;;;1.57;1.47;;;36.90;21.90;;;;;;5074158;28;20416;-70
2021/06/01 09:22:28;;;;;;;4.30;2.10;;;34.10;22.60;;;;;;5074682;28;20755;-71
2021/06/01 09:25:30;;;;;;;1.93;1.13;;;34.40;23.90;;;;;;5074535;28;20885;-70
2021/06/01 09:27:57;;;;;;;1.77;1.63;;;35.00;23.40;;;;;;5074921;28;20853;-71
2021/06/01 09:30:40;;;;;;;1.93;1.73;;;34.80;23.20;;;;;;5072865;28;20502;-69
2021/06/01 09:33:30;;;;;;;2.10;1.90;;;34.20;24.60;;;;;;5074643;28;20407;-72
2021/06/01 09:35:59;;;;;;;1.60;1.50;;;35.30;22.70;;;;;;5074020;28;20458;-74
2021/06/01 09:38:28;;;;;;;1.33;1.23;;;36.20;23.10;;;;;;5074394;28;20415;-72
2021/06/01 09:41:06;;;;;;;3.37;2.27;;;35.60;23.10;;;;;;5074265;28;20396;-70
2021/06/01 09:43:33;;;;;;;2.63;1.60;;;36.20;23.10;;;;;;5074400;28;20406;-70
2021/06/01 09:46:23;;;;;;;2.07;1.77;;;35.80;23.00;;;;;;5073782;28;20455;-70
2021/06/01 09:48:49;;;;;;;2.20;1.70;;;35.80;23.10;;;;;;5074453;28;20470;-70
2021/06/01 09:51:32;;;;;;;2.87;2.07;;;34.70;23.80;;;;;;5074019;28;20418;-69
2021/06/01 09:54:37;;;;;;;1.80;1.70;;;34.90;23.90;;;;;;5074350;28;20587;-70
2021/06/01 09:57:27;;;;;;;2.40;1.60;;;35.50;22.90;;;;;;5073654;28;20976;-70
2021/06/01 10:00:16;;;;;;;2.03;1.60;;;34.70;24.90;;;;;;5074162;28;20897;-72
2021/06/01 10:02:44;;;;;;;2.70;2.50;;;34.50;24.40;;;;;;5074113;28;20406;-72
2021/06/01 10:05:21;;;;;;;3.27;1.73;;;34.90;24.40;;;;;;5073512;28;20427;-71
2021/06/01 10:07:53;;;;;;;1.80;1.70;;;35.60;24.30;;;;;;5073891;28;20447;-71
2021/06/01 10:10:30;;;;;;;1.70;1.60;;;33.60;24.90;;;;;;5073717;28;20423;-71
2021/06/01 10:12:59;;;;;;;1.97;1.70;;;33.00;25.30;;;;;;5073998;28;20395;-71
2021/06/01 10:15:30;;;;;;;2.63;1.60;;;31.70;25.10;;;;;;5073617;28;20763;-70
2021/06/01 10:17:57;;;;;;;2.40;1.87;;;31.80;25.50;;;;;;5073859;28;20396;-70
2021/06/01 10:20:25;;;;;;;1.80;1.70;;;32.00;27.60;;;;;;5072701;28;20443;-71
2021/06/01 10:22:53;;;;;;;2.10;1.90;;;31.70;27.10;;;;;;5073738;28;20423;-72
2021/06/01 10:25:20;;;;;;;1.77;1.67;;;31.40;26.90;;;;;;5073492;28;20481;-72
2021/06/01 10:27:48;;;;;;;1.90;1.70;;;31.70;26.50;;;;;;5073469;28;20451;-72
2021/06/01 10:30:15;;;;;;;1.83;1.53;;;31.30;26.70;;;;;;5073622;28;20431;-72
2021/06/01 10:32:51;;;;;;;2.03;1.80;;;30.90;27.60;;;;;;5073673;28;20408;-72
2021/06/01 10:35:20;;;;;;;1.70;1.60;;;30.60;27.20;;;;;;5073475;28;20419;-72
2021/06/01 10:52:11;;;;;;;2.03;1.93;;;29.00;29.70;;;;;;5073762;28;20430;-72
2021/06/01 10:54:43;;;;;;;1.87;1.77;;;28.40;29.40;;;;;;5072926;28;20390;-72
2021/06/01 10:57:12;;;;;;;2.30;2.10;;;27.10;30.80;;;;;;5073161;28;20394;-72
2021/06/01 10:59:48;;;;;;;2.13;1.93;;;26.70;32.40;;;;;;5073607;28;20417;-72
2021/06/01 11:02:15;;;;;;;1.73;1.63;;;26.20;33.10;;;;;;5073194;28;20402;-72
2021/06/01 11:05:06;;;;;;;2.33;2.10;;;26.10;32.80;;;;;;5073212;28;20377;-72
2021/06/01 11:08:00;;;;;;;2.40;1.60;;;25.60;33.00;;;;;;5073315;28;20931;-72
2021/06/01 11:10:36;;;;;;;2.00;1.90;;;25.40;32.90;;;;;;5073343;28;20408;-72
2021/06/01 11:13:02;;;;;;;3.20;1.80;;;25.00;34.10;;;;;;5071899;28;20877;-72
2021/06/01 11:15:30;;;;;;;2.50;1.90;;;24.90;35.70;;;;;;5072917;28;20426;-72
2021/06/01 11:18:14;;;;;;;2.87;2.20;;;24.60;35.10;;;;;;5073160;28;20493;-72
2021/06/01 11:21:00;;;;;;;2.03;1.70;;;24.90;38.90;;;;;;5073033;28;20370;-72
2021/06/01 11:23:38;;;;;;;2.03;1.87;;;25.20;38.30;;;;;;5073069;28;20418;-72
2021/06/01 11:34:00;;;;;;;2.20;1.57;;;24.80;34.30;;;;;;5076790;28;20772;-71
2021/06/01 11:36:35;;;;;;;1.43;1.33;;;24.60;34.50;;;;;;5076319;28;20427;-71
2021/06/01 11:39:23;;;;;;;1.70;1.60;;;24.60;34.70;;;;;;5076682;28;20419;-72
2021/06/01 11:44:28;;;;;;;2.63;1.93;;;24.70;36.30;;;;;;5076724;28;20399;-72
2021/06/01 11:47:52;;;;;;;1.57;1.47;;;24.80;35.20;;;;;;5076334;28;20501;-72
2021/06/01 11:52:55;;;;;;;2.80;1.77;;;25.20;37.30;;;;;;5094654;28;20399;-72
2021/06/01 11:55:21;;;;;;;2.30;1.77;;;25.40;38.50;;;;;;5078557;28;20517;-72
2021/06/01 12:02:02;;;;;;;5.07;1.57;;;26.00;38.00;;;;;;5076119;28;20545;-72
2021/06/01 12:04:00;;;;;;;4.23;2.10;;;26.10;34.90;;;;;;5076081;28;20461;-72
2021/06/01 12:12:08;;;;;;;2.70;1.97;;;25.80;35.20;;;;;;5076266;28;20422;-72
2021/06/01 12:17:52;;;;;;;2.57;2.33;;;25.30;34.70;;;;;;5074924;28;20525;-71
2021/06/01 12:20:18;;;;;;;2.40;2.20;;;24.80;35.20;;;;;;5076521;28;20400;-75
2021/06/01 12:22:44;;;;;;;4.53;1.83;;;24.40;36.80;;;;;;5076464;28;20408;-71
2021/06/01 12:25:11;;;;;;;2.63;1.80;;;24.50;36.70;;;;;;5075524;28;20194;-73
2021/06/01 12:31:00;;;;;;;2.10;1.73;;;24.70;35.90;;;;;;5085799;28;20391;-70
2021/06/01 12:33:26;;;;;;;3.17;2.03;;;24.90;38.50;;;;;;5075938;28;20429;-71
2021/06/01 12:41:42;;;;;;;2.93;1.93;;;25.50;35.10;;;;;;5076149;28;20413;-68
2021/06/01 12:44:08;;;;;;;2.77;2.13;;;25.60;35.50;;;;;;5074696;28;20406;-69
2021/06/01 12:47:02;;;;;;;1.80;1.70;;;25.40;34.40;;;;;;5075362;28;20432;-69
2021/06/01 13:31:43;;;;;;;2.50;2.30;;;24.30;37.40;;;;;;5075104;28;20415;-71
2021/06/01 13:40:01;;;;;;;2.13;2.00;;;24.20;37.60;;;;;;5074431;28;20765;-71
2021/06/01 13:48:09;;;;;;;1.83;1.73;;;23.70;38.90;;;;;;5074235;28;20971;-71
2021/06/01 13:55:58;;;;;;;1.87;1.77;;;23.30;38.80;;;;;;5073759;28;20503;-71
2021/06/01 14:31:38;;;;;;;2.13;1.93;;;22.40;45.80;;;;;;5072561;28;20491;-71
2021/06/01 15:50:12;;;;;;;1.73;1.63;;;23.20;41.10;;;;;;5076649;28;20491;-72
2021/06/01 15:53:18;;;;;;;2.27;2.07;;;23.40;42.00;;;;;;5076675;28;20932;-73
2021/06/01 16:15:03;;;;;;;8.43;2.47;;;22.10;48.30;;;;;;5075888;28;20460;-73
2021/06/01 17:03:39;;;;;;;2.43;2.27;;;21.30;49.90;;;;;;5075660;28;20400;-73
2021/06/01 17:06:16;;;;;;;3.10;2.77;;;21.20;50.90;;;;;;5075212;28;20449;-75
2021/06/01 17:11:28;;;;;;;1.83;1.60;;;21.20;46.70;;;;;;5075623;28;20950;-73
2021/06/01 17:14:02;;;;;;;2.23;2.03;;;21.30;49.50;;;;;;5075284;28;20447;-74
2021/06/01 17:35:10;;;;;;;5.07;2.10;;;20.50;51.00;;;;;;5074382;28;20446;-75
2021/06/01 17:37:36;;;;;;;2.67;2.20;;;20.40;48.90;;;;;;5074352;28;20405;-72
2021/06/01 17:40:05;;;;;;;2.90;2.70;;;20.20;46.60;;;;;;5074301;28;20411;-73
2021/06/01 17:42:32;;;;;;;4.63;2.07;;;20.20;49.30;;;;;;5074502;28;20411;-73
2021/06/01 17:45:00;;;;;;;2.27;2.07;;;20.10;48.30;;;;;;5074117;28;20410;-74
2021/06/01 17:47:27;;;;;;;2.70;2.50;;;20.00;47.10;;;;;;5074143;28;21018;-74
2021/06/01 17:49:54;;;;;;;2.70;2.30;;;19.90;47.80;;;;;;5074316;28;20399;-73
2021/06/01 17:52:29;;;;;;;4.07;2.50;;;19.80;49.50;;;;;;5074584;28;20402;-72
2021/06/01 17:54:58;;;;;;;2.63;2.20;;;19.70;48.80;;;;;;5074220;28;20737;-73
2021/06/01 17:57:26;;;;;;;2.37;2.17;;;19.80;49.80;;;;;;5073973;28;20434;-73
2021/06/01 17:59:52;;;;;;;1.80;1.70;;;19.60;50.20;;;;;;5074071;28;20403;-71
2021/06/01 18:02:18;;;;;;;3.00;2.30;;;19.40;50.80;;;;;;5074038;28;20932;-73
2021/06/01 18:04:46;;;;;;;2.57;2.30;;;19.40;50.80;;;;;;5073889;28;20411;-73
2021/06/01 18:07:20;;;;;;;7.57;2.20;;;19.40;50.00;;;;;;5073545;28;20835;-72
2021/06/01 19:42:27;;;;;;;2.60;2.40;;;15.30;90.00;;;;;;5073260;28;20442;-72
2021/06/01 19:44:08;;;;;;;2.57;2.37;;;14.90;89.50;;;;;;5073063;28;20430;-73
2021/06/01 19:51:46;;;;;;;3.33;2.07;;;14.80;92.10;;;;;;5072515;28;21016;-70
2021/06/01 19:54:22;;;;;;;3.00;2.27;;;14.70;92.20;;;;;;5074911;28;20422;-73
2021/06/01 19:56:49;;;;;;;2.87;2.63;;;14.70;92.80;;;;;;5075547;28;20419;-72
2021/06/01 19:59:19;;;;;;;5.77;2.10;;;14.60;93.30;;;;;;5076766;28;20550;-73
2021/06/01 20:01:46;;;;;;;2.00;1.80;;;14.50;93.50;;;;;;5076488;28;20411;-74
2021/06/01 20:04:12;;;;;;;3.20;2.20;;;14.30;94.00;;;;;;5076218;28;20483;-75
2021/06/01 20:06:39;;;;;;;2.30;2.10;;;14.20;94.40;;;;;;5076402;28;20424;-73
2021/06/01 20:09:06;;;;;;;2.50;2.30;;;14.00;94.10;;;;;;5076105;28;20463;-72
2021/06/01 20:11:34;;;;;;;2.47;2.27;;;14.00;94.70;;;;;;5076695;28;20954;-73